Time;durP1;ratioP1;P1;durP2;ratioP2;P2;SDS_P1;SDS_P2;PMS_P1;PMS_P2;Temp;Humidity;BMP_temperature;BMP_pressure;BME280_temperature;BME280_humidity;BME280_pressure;Samples;Min_cycle;Max_cycle;Signal;HPM_P1;HPM_P2
2023/10/17 00:00:28;;;;;;;37.75;34.20;;;;;;;9.32;45.10;95059.03;4208248;28;20055;-69
2023/10/17 00:02:32;;;;;;;32.15;29.33;;;;;;;9.15;44.71;95053.56;4208577;28;20055;-69
2023/10/17 00:04:35;;;;;;;36.13;32.67;;;;;;;9.16;44.58;95059.59;4190684;28;20084;-69
2023/10/17 00:06:37;;;;;;;31.90;27.02;;;;;;;9.20;45.10;95056.56;4210302;28;20047;-70
2023/10/17 00:08:41;;;;;;;24.80;22.38;;;;;;;9.20;44.96;95048.72;4192836;28;20273;-70
2023/10/17 00:10:45;;;;;;;25.30;22.67;;;;;;;9.26;45.46;95052.56;4183684;28;20060;-70
2023/10/17 00:12:53;;;;;;;25.73;23.40;;;;;;;9.32;45.14;95048.56;4208278;28;20293;-70
2023/10/17 00:16:57;;;;;;;29.40;26.27;;;;;;;9.44;45.23;95044.78;4210146;28;20105;-69
2023/10/17 00:19:05;;;;;;;24.15;21.98;;;;;;;9.32;44.88;95052.00;4192054;28;20131;-69
2023/10/17 00:21:23;;;;;;;25.55;23.10;;;;;;;9.12;45.02;95042.56;4209957;28;20061;-70
2023/10/17 00:23:27;;;;;;;22.40;20.15;;;;;;;8.94;45.28;95043.28;4191106;28;20040;-70
2023/10/17 00:25:29;;;;;;;20.52;15.45;;;;;;;8.95;45.52;95044.13;4193935;28;20171;-68
2023/10/17 00:27:31;;;;;;;19.50;17.20;;;;;;;8.94;45.35;95040.69;4190219;28;20055;-69
2023/10/17 00:29:33;;;;;;;21.10;18.90;;;;;;;9.08;45.16;95034.19;4192087;28;20443;-70
2023/10/17 00:31:36;;;;;;;21.15;19.05;;;;;;;9.14;45.23;95035.41;4192669;28;20052;-71
2023/10/17 00:33:41;;;;;;;24.92;22.25;;;;;;;9.25;44.71;95037.88;4209024;28;20044;-71
2023/10/17 00:35:48;;;;;;;17.30;15.23;;;;;;;9.21;44.67;95036.50;4208924;28;20563;-70
2023/10/17 00:37:57;;;;;;;17.75;15.88;;;;;;;9.20;45.05;95030.44;4183011;28;20188;-69
2023/10/17 00:39:59;;;;;;;28.77;26.23;;;;;;;9.23;44.53;95027.53;4197284;28;20401;-71
2023/10/17 00:44:09;;;;;;;26.65;24.23;;;;;;;9.19;44.75;95022.75;4199367;28;20796;-71
2023/10/17 00:46:11;;;;;;;24.58;22.23;;;;;;;9.11;44.72;95017.41;4190508;28;20110;-70
2023/10/17 00:48:27;;;;;;;32.85;29.67;;;;;;;8.91;44.73;95017.44;4192614;28;20087;-69
2023/10/17 00:50:30;;;;;;;21.60;19.38;;;;;;;8.87;45.80;95018.69;4190725;28;20051;-69
2023/10/17 00:52:34;;;;;;;27.70;25.00;;;;;;;8.92;45.57;95018.28;4202756;28;20130;-70
2023/10/17 00:54:39;;;;;;;27.17;24.05;;;;;;;8.93;45.40;95017.31;4190343;28;20056;-71
2023/10/17 00:56:43;;;;;;;22.15;19.83;;;;;;;9.00;45.85;95010.56;4202475;28;20107;-69
2023/10/17 00:58:46;;;;;;;30.42;27.48;;;;;;;9.01;45.63;95020.03;4209276;28;20142;-70
2023/10/17 01:00:58;;;;;;;22.17;19.65;;;;;;;9.05;45.52;95018.78;4208058;28;20805;-70
2023/10/17 01:03:05;;;;;;;26.40;23.98;;;;;;;9.10;45.52;95018.34;4209234;28;20142;-71
2023/10/17 01:05:11;;;;;;;21.83;19.27;;;;;;;9.06;46.00;95017.03;4188039;28;20417;-69
2023/10/17 01:07:23;;;;;;;26.70;24.20;;;;;;;9.09;45.37;95024.56;4179253;28;20057;-70
2023/10/17 01:09:27;;;;;;;25.88;23.48;;;;;;;9.08;45.70;95020.28;4185311;28;20106;-70
2023/10/17 01:11:29;;;;;;;28.73;26.08;;;;;;;9.05;45.80;95020.56;4207387;28;20158;-71
2023/10/17 01:13:36;;;;;;;22.60;20.38;;;;;;;8.99;45.88;95022.81;4184480;28;20048;-69
2023/10/17 01:15:38;;;;;;;33.63;30.63;;;;;;;8.70;46.17;95022.03;4208786;28;20412;-70
2023/10/17 01:17:41;;;;;;;18.45;16.42;;;;;;;7.62;48.79;95021.09;4191342;28;20525;-70
2023/10/17 01:19:43;;;;;;;20.77;15.63;;;;;;;7.10;50.70;95030.78;4204638;28;20045;-70
2023/10/17 01:21:45;;;;;;;17.17;14.45;;;;;;;7.11;51.24;95030.63;4209149;28;20051;-68
2023/10/17 01:23:49;;;;;;;20.02;17.90;;;;;;;6.97;51.86;95031.78;4190669;28;20052;-71
2023/10/17 01:25:51;;;;;;;15.35;12.75;;;;;;;7.25;51.02;95026.00;4207139;28;20071;-69
2023/10/17 01:27:54;;;;;;;16.23;14.30;;;;;;;7.55;50.92;95019.94;4189956;28;20067;-70
2023/10/17 01:29:56;;;;;;;12.45;10.98;;;;;;;7.85;50.30;95023.47;4190319;28;20437;-67
2023/10/17 01:31:59;;;;;;;16.95;14.07;;;;;;;8.06;49.44;95016.34;4169403;28;20510;-71
2023/10/17 01:34:02;;;;;;;17.77;13.57;;;;;;;8.23;48.97;95019.25;4189754;28;20504;-71
2023/10/17 01:36:09;;;;;;;15.30;12.47;;;;;;;8.37;48.24;95021.47;4189025;28;20059;-71
2023/10/17 01:38:13;;;;;;;21.30;19.02;;;;;;;8.47;48.80;95011.03;4203370;28;20300;-71
2023/10/17 01:40:26;;;;;;;15.35;13.15;;;;;;;8.51;47.73;95010.63;4208795;28;20076;-71
2023/10/17 01:42:30;;;;;;;19.13;16.10;;;;;;;8.57;47.82;95020.53;4133543;28;2083183;-71
2023/10/17 01:44:33;;;;;;;22.02;16.35;;;;;;;8.59;48.10;95013.38;4177629;28;20544;-69
2023/10/17 01:46:38;;;;;;;17.75;15.18;;;;;;;8.63;47.72;95013.13;4211804;28;20458;-69
2023/10/17 01:48:46;;;;;;;23.40;19.98;;;;;;;8.67;48.02;95019.69;4207621;28;20508;-69
2023/10/17 01:50:48;;;;;;;24.88;20.92;;;;;;;8.54;48.41;95020.81;4207909;28;20063;-68
2023/10/17 01:52:53;;;;;;;36.05;27.05;;;;;;;8.18;48.51;95028.31;4168416;28;20045;-70
2023/10/17 01:54:55;;;;;;;31.85;28.33;;;;;;;7.87;48.50;95029.38;4208292;28;20134;-69
2023/10/17 01:57:05;;;;;;;15.65;12.75;;;;;;;7.55;49.54;95020.81;4210703;28;20639;-68
2023/10/17 01:59:13;;;;;;;20.15;15.75;;;;;;;6.86;51.68;95025.81;4186198;28;20512;-70
2023/10/17 02:01:16;;;;;;;12.50;11.18;;;;;;;6.49;52.81;95034.91;4202469;28;20400;-71
2023/10/17 02:03:19;;;;;;;23.27;13.88;;;;;;;6.68;52.92;95023.81;4209607;28;20071;-69
2023/10/17 02:05:22;;;;;;;15.55;11.77;;;;;;;7.02;52.06;95027.97;4194249;28;20052;-69
2023/10/17 02:07:25;;;;;;;13.45;9.85;;;;;;;7.27;51.56;95014.53;4190713;28;20054;-70
2023/10/17 02:11:37;;;;;;;16.63;11.05;;;;;;;7.63;50.24;95014.91;4211662;28;20787;-71
2023/10/17 02:13:41;;;;;;;20.10;13.38;;;;;;;7.69;50.34;95006.56;4211478;28;20054;-71
2023/10/17 02:15:44;;;;;;;18.63;11.82;;;;;;;7.84;50.20;95001.78;4211997;28;20455;-71
2023/10/17 02:17:47;;;;;;;17.85;10.93;;;;;;;7.96;50.39;94999.88;4193669;28;20587;-70
2023/10/17 02:19:52;;;;;;;20.98;12.63;;;;;;;7.80;50.33;95003.81;4212067;28;20078;-68
2023/10/17 02:21:55;;;;;;;25.27;15.07;;;;;;;7.73;50.93;95000.13;4194062;28;20068;-68
2023/10/17 02:23:57;;;;;;;14.52;10.23;;;;;;;7.81;51.18;95004.66;4185242;28;20103;-71
2023/10/17 02:26:03;;;;;;;12.38;10.35;;;;;;;7.94;50.61;95013.06;4198968;28;20063;-68
2023/10/17 02:28:05;;;;;;;28.52;14.20;;;;;;;8.06;50.33;95005.91;4192435;28;20373;-70
2023/10/17 02:30:10;;;;;;;27.40;20.35;;;;;;;8.16;50.17;94998.94;4190235;28;20579;-69
2023/10/17 02:32:12;;;;;;;18.95;14.27;;;;;;;8.23;50.38;95003.59;4177571;28;20063;-70
2023/10/17 02:34:16;;;;;;;13.45;8.77;;;;;;;8.28;50.07;95004.84;4211687;28;20083;-70
2023/10/17 02:36:22;;;;;;;17.20;13.82;;;;;;;8.17;50.28;94997.97;4183892;28;20131;-71
2023/10/17 02:38:24;;;;;;;14.70;11.23;;;;;;;7.96;50.08;95002.50;4211300;28;20056;-71
2023/10/17 02:40:27;;;;;;;12.02;8.20;;;;;;;7.54;51.63;95010.50;4192259;28;20058;-70
2023/10/17 02:42:29;;;;;;;23.60;13.15;;;;;;;7.14;52.86;95008.69;4210950;28;20052;-69
2023/10/17 02:44:31;;;;;;;13.07;8.45;;;;;;;7.30;52.70;95008.22;4211437;28;20137;-68
2023/10/17 02:46:33;;;;;;;27.23;15.20;;;;;;;7.50;52.51;95011.72;4188578;28;20140;-70
2023/10/17 02:48:38;;;;;;;13.52;10.25;;;;;;;7.60;52.17;95004.75;4200539;28;20480;-70
2023/10/17 02:50:49;;;;;;;23.58;15.75;;;;;;;7.77;51.87;95005.91;4204937;28;20507;-70
2023/10/17 02:52:52;;;;;;;13.68;7.28;;;;;;;7.85;51.11;95000.00;4211093;28;20074;-69
2023/10/17 02:54:59;;;;;;;21.17;13.43;;;;;;;7.91;51.17;95002.88;4202822;28;20079;-68
2023/10/17 02:57:07;;;;;;;21.35;16.00;;;;;;;8.02;51.01;95007.16;4210289;28;20052;-68
2023/10/17 02:59:10;;;;;;;28.45;19.90;;;;;;;8.11;50.69;95003.75;4192303;28;20056;-70
2023/10/17 03:01:12;;;;;;;29.70;18.80;;;;;;;8.14;50.68;95006.06;4211705;28;20423;-72
2023/10/17 03:03:19;;;;;;;21.27;19.00;;;;;;;8.09;50.96;95008.28;4209534;28;20472;-70
2023/10/17 03:05:21;;;;;;;12.82;9.35;;;;;;;7.83;50.88;95005.38;4204624;28;20528;-74
2023/10/17 03:07:24;;;;;;;32.53;26.55;;;;;;;7.79;51.26;95017.84;4203146;28;20048;-70
2023/10/17 03:11:47;;;;;;;22.13;16.90;;;;;;;7.88;51.26;95023.22;4199287;28;20051;-71
2023/10/17 03:13:49;;;;;;;23.95;17.73;;;;;;;7.99;51.26;95018.69;4210253;28;20059;-69
2023/10/17 03:15:57;;;;;;;27.38;22.48;;;;;;;8.08;51.39;95022.25;4210928;28;20052;-70
2023/10/17 03:18:02;;;;;;;37.25;25.77;;;;;;;8.15;50.84;95018.16;4191404;28;20052;-67
2023/10/17 03:20:09;;;;;;;24.58;18.42;;;;;;;8.22;50.54;95013.22;4206383;28;20110;-70
2023/10/17 03:22:19;;;;;;;27.00;18.95;;;;;;;8.27;50.19;95005.81;4203495;28;20435;-69
2023/10/17 03:24:41;;;;;;;31.67;20.42;;;;;;;8.32;50.52;95002.78;4208494;28;20044;-69
2023/10/17 03:26:54;;;;;;;31.83;24.75;;;;;;;8.31;50.88;95004.56;4186497;28;20048;-69
2023/10/17 03:29:00;;;;;;;30.73;23.33;;;;;;;8.14;51.15;95011.28;4209676;28;20058;-71
2023/10/17 03:31:10;;;;;;;41.47;23.65;;;;;;;8.09;51.50;95010.06;4210048;28;20484;-70
2023/10/17 03:33:25;;;;;;;21.45;17.10;;;;;;;8.17;51.06;95007.56;4208446;28;20492;-70
2023/10/17 03:35:31;;;;;;;28.00;22.88;;;;;;;8.16;51.21;95006.75;4188548;28;20058;-71
2023/10/17 03:37:33;;;;;;;31.75;25.30;;;;;;;8.21;50.86;95009.78;4210994;28;20079;-71
2023/10/17 03:39:50;;;;;;;29.95;20.17;;;;;;;8.23;51.36;95007.03;4210273;28;20547;-71
2023/10/17 03:41:58;;;;;;;26.60;18.52;;;;;;;8.23;51.03;95006.22;4208531;28;20056;-70
2023/10/17 03:44:01;;;;;;;29.80;22.67;;;;;;;8.35;50.95;95008.56;4209926;28;20048;-68
2023/10/17 03:46:05;;;;;;;28.80;20.13;;;;;;;8.43;50.54;95009.66;4175717;28;20136;-69
2023/10/17 03:48:20;;;;;;;31.65;25.80;;;;;;;8.35;50.77;95011.16;4192352;28;20512;-70
2023/10/17 03:50:34;;;;;;;25.40;22.65;;;;;;;8.37;50.85;95011.03;4191460;28;20577;-71
2023/10/17 03:52:36;;;;;;;25.60;20.10;;;;;;;8.44;50.36;95004.31;4201433;28;20106;-69
2023/10/17 03:54:38;;;;;;;35.78;28.08;;;;;;;8.48;50.07;94997.03;4210359;28;20040;-69
2023/10/17 03:56:55;;;;;;;27.83;20.88;;;;;;;8.06;51.09;95000.69;4210218;28;20158;-71
2023/10/17 03:59:16;;;;;;;19.88;16.13;;;;;;;7.84;51.65;95006.19;4197203;28;20056;-70
2023/10/17 04:01:23;;;;;;;41.53;27.67;;;;;;;7.94;51.66;95004.41;4195515;28;20061;-71
2023/10/17 04:03:26;;;;;;;16.67;12.90;;;;;;;8.07;51.20;95004.97;4191305;28;20052;-73
2023/10/17 04:05:28;;;;;;;30.15;22.38;;;;;;;7.86;51.49;95001.66;4210383;28;20135;-71
2023/10/17 04:07:32;;;;;;;38.83;25.48;;;;;;;7.75;52.07;95000.81;4210108;28;20836;-71
2023/10/17 04:12:08;;;;;;;32.58;23.60;;;;;;;8.01;51.58;94997.69;4195944;28;20496;-71
2023/10/17 04:14:11;;;;;;;19.25;14.57;;;;;;;8.02;52.02;95009.75;4209342;28;20048;-73
2023/10/17 04:16:22;;;;;;;25.75;21.17;;;;;;;8.10;51.83;95004.69;4208142;28;20060;-70
2023/10/17 04:18:24;;;;;;;33.08;26.52;;;;;;;8.19;51.27;94997.81;4201535;28;20563;-71
2023/10/17 04:20:30;;;;;;;20.88;16.88;;;;;;;8.08;51.80;95000.56;4204645;28;20492;-71
2023/10/17 04:22:33;;;;;;;28.85;20.55;;;;;;;8.14;51.74;94998.25;4210270;28;20056;-72
2023/10/17 04:24:35;;;;;;;23.23;17.85;;;;;;;8.26;51.64;94998.94;4209839;28;20044;-70
2023/10/17 04:26:43;;;;;;;16.60;13.95;;;;;;;8.37;51.41;95000.59;4207313;28;20056;-72
2023/10/17 04:28:50;;;;;;;24.52;16.83;;;;;;;8.45;50.89;95000.72;4192674;28;20424;-72
2023/10/17 04:30:56;;;;;;;29.75;17.98;;;;;;;8.54;50.82;94999.06;4198676;28;20067;-71
2023/10/17 04:35:29;;;;;;;23.33;16.90;;;;;;;8.64;51.15;94994.66;4181287;28;20500;-71
2023/10/17 04:37:33;;;;;;;31.23;21.35;;;;;;;8.67;50.65;94991.78;4188287;28;20044;-73
2023/10/17 04:39:36;;;;;;;35.45;20.38;;;;;;;8.69;51.03;94984.66;4206033;28;20050;-73
2023/10/17 04:44:02;;;;;;;41.33;21.42;;;;;;;8.78;51.21;94982.97;4199042;28;20147;-73
2023/10/17 04:46:08;;;;;;;21.60;19.35;;;;;;;8.80;50.71;94996.72;4203388;28;20067;-72
2023/10/17 04:48:11;;;;;;;32.33;18.90;;;;;;;8.61;51.11;94992.34;4190665;28;20048;-72
2023/10/17 04:50:15;;;;;;;26.98;21.75;;;;;;;8.27;52.62;94997.97;4209949;28;20504;-71
2023/10/17 04:52:20;;;;;;;22.00;15.80;;;;;;;8.11;52.56;94995.06;4204831;28;20542;-70
2023/10/17 04:54:30;;;;;;;33.63;22.27;;;;;;;8.07;52.65;94991.13;4206778;28;20059;-72
2023/10/17 04:59:02;;;;;;;25.33;14.80;;;;;;;6.90;56.02;95003.78;4186123;28;20130;-70
2023/10/17 05:03:26;;;;;;;15.18;9.48;;;;;;;7.13;56.10;94992.25;4190860;28;20462;-72
2023/10/17 05:08:11;;;;;;;17.45;9.38;;;;;;;7.85;54.82;94998.22;4167444;28;20109;-72
2023/10/17 06:18:32;;;;;;;11.20;3.97;;;;;;;10.41;55.47;95033.81;4197318;28;20502;-72
2023/10/17 06:26:05;;;;;;;10.27;3.42;;;;;;;10.94;53.77;95018.19;4200494;28;20076;-71
2023/10/17 06:30:27;;;;;;;16.42;3.70;;;;;;;11.11;52.88;95027.00;4190454;28;20087;-72
2023/10/17 06:34:38;;;;;;;9.38;3.95;;;;;;;11.13;53.39;95033.72;4194624;28;20052;-73
2023/10/17 06:36:44;;;;;;;9.90;3.85;;;;;;;11.09;53.16;95036.81;4193449;28;20060;-73
2023/10/17 06:38:46;;;;;;;7.55;3.45;;;;;;;11.09;52.82;95029.75;4208484;28;20144;-73
2023/10/17 06:40:53;;;;;;;8.15;3.53;;;;;;;11.10;52.79;95031.41;4177899;28;20057;-73
2023/10/17 06:42:59;;;;;;;7.90;3.85;;;;;;;11.20;52.89;95031.31;4193442;28;20056;-73
2023/10/17 06:45:18;;;;;;;5.97;3.10;;;;;;;11.05;52.76;95029.22;4207079;28;20045;-70
2023/10/17 06:47:31;;;;;;;8.15;3.50;;;;;;;11.18;52.90;95036.69;4211452;28;20044;-72
2023/10/17 06:51:39;;;;;;;10.98;3.60;;;;;;;11.33;52.50;95033.50;4210515;28;20070;-72
2023/10/17 06:53:41;;;;;;;10.70;4.18;;;;;;;11.24;52.35;95038.69;4186285;28;20094;-72
2023/10/17 06:55:44;;;;;;;4.97;3.20;;;;;;;11.29;52.64;95032.97;4211570;28;20154;-73
2023/10/17 06:57:50;;;;;;;7.32;3.35;;;;;;;11.43;52.50;95031.59;4211469;28;20071;-73
2023/10/17 07:01:04;;;;;;;13.50;3.75;;;;;;;11.55;52.28;95030.38;4206873;28;20094;-72
2023/10/17 07:02:34;;;;;;;7.57;3.42;;;;;;;11.73;51.84;95029.44;4192887;28;20059;-73
2023/10/17 07:04:37;;;;;;;10.32;3.55;;;;;;;11.83;51.49;95022.25;4193934;28;20076;-73
2023/10/17 07:06:39;;;;;;;9.17;3.33;;;;;;;11.91;51.28;95024.13;4210901;28;20052;-73
2023/10/17 07:08:46;;;;;;;9.30;3.70;;;;;;;11.98;51.13;95015.47;4198385;28;20143;-73
2023/10/17 07:11:18;;;;;;;8.30;3.40;;;;;;;11.96;50.72;95014.81;4156646;28;20053;-73
2023/10/17 07:13:49;;;;;;;9.10;4.22;;;;;;;11.91;50.57;95009.19;4208238;28;20083;-72
2023/10/17 07:15:54;;;;;;;11.35;3.08;;;;;;;11.90;50.74;95012.00;4207232;28;20051;-72
2023/10/17 07:22:40;;;;;;;9.55;3.42;;;;;;;11.81;51.33;95003.25;4205666;28;20516;-73
2023/10/17 07:24:43;;;;;;;6.32;3.17;;;;;;;11.84;51.30;95016.84;4210414;28;20095;-71
2023/10/17 07:26:45;;;;;;;6.85;3.20;;;;;;;11.86;51.68;95007.00;4210841;28;20056;-72
2023/10/17 07:28:50;;;;;;;6.68;3.60;;;;;;;11.82;51.33;95003.06;4206135;28;20496;-72
2023/10/17 07:30:57;;;;;;;8.48;3.78;;;;;;;11.87;51.59;95008.66;4204188;28;20353;-73
2023/10/17 07:33:04;;;;;;;7.25;3.83;;;;;;;12.00;52.60;95000.38;4187966;28;20049;-72
2023/10/17 07:35:07;;;;;;;8.50;3.42;;;;;;;12.03;51.24;94996.59;4210471;28;20080;-74
2023/10/17 07:39:36;;;;;;;7.28;3.95;;;;;;;11.77;51.98;95007.16;4206887;28;20472;-74
2023/10/17 07:41:39;;;;;;;8.63;3.55;;;;;;;11.88;51.66;94997.22;4180566;28;20053;-72
2023/10/17 07:43:44;;;;;;;8.35;4.18;;;;;;;12.04;51.54;94992.97;4193674;28;20172;-71
2023/10/17 07:45:55;;;;;;;10.27;3.50;;;;;;;12.14;50.51;94996.28;4205945;28;20051;-71
2023/10/17 07:48:03;;;;;;;8.52;3.95;;;;;;;12.29;50.69;94992.03;4206293;28;20071;-72
2023/10/17 07:50:12;;;;;;;9.10;3.22;;;;;;;12.13;49.69;94992.03;4209491;28;20051;-70
2023/10/17 07:52:17;;;;;;;12.27;3.83;;;;;;;12.29;50.46;94997.28;4192984;28;20111;-73
2023/10/17 07:54:28;;;;;;;9.02;3.10;;;;;;;12.42;49.74;94988.13;4210944;28;20109;-71
2023/10/17 07:56:32;;;;;;;9.13;3.25;;;;;;;12.52;49.71;94995.84;4192168;28;20131;-72
2023/10/17 07:58:41;;;;;;;4.70;2.92;;;;;;;12.56;49.16;94990.09;4192488;28;20052;-72
2023/10/17 08:00:48;;;;;;;7.38;2.95;;;;;;;12.13;49.74;94992.03;4208590;28;20127;-72
2023/10/17 08:02:54;;;;;;;9.23;2.75;;;;;;;12.14;50.32;94987.59;4192994;28;20106;-71
2023/10/17 08:05:17;;;;;;;13.52;3.20;;;;;;;12.12;49.65;94994.81;4192936;28;20478;-72
2023/10/17 08:07:22;;;;;;;10.18;3.78;;;;;;;12.19;49.76;95001.88;4178755;28;20124;-72
2023/10/17 08:09:25;;;;;;;4.68;2.63;;;;;;;12.29;49.20;94992.03;4210088;28;20076;-70
2023/10/17 08:11:41;;;;;;;8.60;2.58;;;;;;;12.48;48.91;94993.53;4198059;28;20083;-74
2023/10/17 08:13:45;;;;;;;4.80;2.60;;;;;;;12.67;48.87;94994.22;4202919;28;20084;-73
2023/10/17 08:15:56;;;;;;;4.85;2.38;;;;;;;12.78;47.90;94993.06;4205675;28;20466;-71
2023/10/17 08:17:58;;;;;;;8.15;2.85;;;;;;;12.76;47.86;94995.03;4191603;28;20139;-71
2023/10/17 08:20:38;;;;;;;6.75;3.28;;;;;;;12.74;47.41;94989.13;4208597;28;20052;-73
2023/10/17 08:22:26;;;;;;;13.50;2.83;;;;;;;12.52;47.47;94994.03;4209461;28;20413;-71
2023/10/17 08:24:44;;;;;;;6.18;2.70;;;;;;;12.47;47.65;94993.69;4181852;28;20489;-71
2023/10/17 08:27:12;;;;;;;8.30;2.80;;;;;;;12.52;47.59;94996.69;4210735;28;20143;-72
2023/10/17 08:29:10;;;;;;;4.80;3.22;;;;;;;12.57;47.85;94991.75;4212808;28;20637;-72
2023/10/17 08:33:36;;;;;;;5.68;2.80;;;;;;;12.57;47.86;94998.81;4192625;28;20044;-74
2023/10/17 08:35:48;;;;;;;10.23;3.30;;;;;;;12.66;47.43;94990.75;4208750;28;20048;-71
2023/10/17 08:37:52;;;;;;;5.55;3.28;;;;;;;12.75;47.13;94985.50;4210281;28;20060;-73
2023/10/17 08:39:56;;;;;;;8.52;3.08;;;;;;;12.73;47.12;94988.28;4210701;28;20551;-71
2023/10/17 08:42:14;;;;;;;6.13;3.33;;;;;;;12.64;46.79;94979.56;4209218;28;20573;-72
2023/10/17 08:44:19;;;;;;;8.85;2.80;;;;;;;12.62;47.27;94981.53;4209509;28;20052;-74
2023/10/17 08:46:21;;;;;;;6.00;2.40;;;;;;;12.62;46.95;94986.00;4203370;28;20480;-74
2023/10/17 08:48:24;;;;;;;5.80;2.58;;;;;;;12.50;47.24;94994.19;4207679;28;20063;-72
2023/10/17 08:50:30;;;;;;;6.18;3.08;;;;;;;12.56;47.44;94994.53;4203063;28;20048;-73
2023/10/17 08:52:35;;;;;;;7.90;3.10;;;;;;;12.71;47.43;94992.88;4203532;28;20052;-73
2023/10/17 08:54:37;;;;;;;4.38;2.85;;;;;;;12.81;47.06;94995.34;4190318;28;20615;-73
2023/10/17 08:56:40;;;;;;;7.32;3.00;;;;;;;12.87;46.55;94997.31;4195641;28;20095;-72
2023/10/17 08:58:43;;;;;;;5.88;2.80;;;;;;;12.95;46.69;94989.44;4209920;28;20112;-74
2023/10/17 09:03:02;;;;;;;8.10;3.03;;;;;;;13.03;46.69;94993.84;4208408;28;20045;-72
2023/10/17 09:05:35;;;;;;;4.60;3.40;;;;;;;13.05;46.49;94987.41;4203151;28;20083;-73
2023/10/17 09:07:44;;;;;;;6.40;3.45;;;;;;;13.08;46.58;94983.66;4209660;28;20404;-73
2023/10/17 09:09:55;;;;;;;13.55;3.20;;;;;;;13.13;46.78;94980.53;4210268;28;20079;-74
2023/10/17 09:14:26;;;;;;;6.40;2.67;;;;;;;13.24;46.14;94975.72;4210057;28;20064;-72
2023/10/17 09:16:34;;;;;;;10.20;3.13;;;;;;;13.22;46.12;94966.34;4211466;28;20044;-70
2023/10/17 09:18:42;;;;;;;17.95;3.13;;;;;;;13.26;46.00;94962.41;4194903;28;20056;-72
2023/10/17 09:20:48;;;;;;;6.13;2.83;;;;;;;13.36;46.02;94955.16;4209929;28;20468;-72
2023/10/17 09:22:50;;;;;;;13.13;3.47;;;;;;;13.44;45.61;94954.31;4200362;28;20060;-73
2023/10/17 09:24:53;;;;;;;7.10;3.03;;;;;;;13.50;45.91;94953.63;4208995;28;20133;-73
2023/10/17 09:26:58;;;;;;;9.00;3.80;;;;;;;13.55;45.80;94946.06;4197477;28;20060;-73
2023/10/17 09:29:00;;;;;;;;;;;;;;;13.43;45.52;94950.84;4212939;28;20138;-72
2023/10/17 09:31:08;;;;;;;9.13;2.55;;;;;;;13.24;45.86;94948.59;4193965;28;19924;-73
2023/10/17 09:33:30;;;;;;;9.25;2.83;;;;;;;13.13;46.04;94946.31;4213099;28;20048;-73
2023/10/17 09:35:33;;;;;;;8.15;2.92;;;;;;;13.05;46.25;94940.06;4185274;28;20044;-72
2023/10/17 09:37:39;;;;;;;11.88;3.00;;;;;;;13.08;46.68;94938.94;4212955;28;20113;-72
2023/10/17 09:39:47;;;;;;;5.32;2.80;;;;;;;13.18;46.56;94938.75;4178291;28;20477;-73
2023/10/17 09:41:56;;;;;;;7.15;2.85;;;;;;;13.27;46.56;94933.28;4184187;28;20052;-74
2023/10/17 09:43:59;;;;;;;4.68;2.45;;;;;;;13.21;45.89;94931.34;4194355;28;20095;-73
2023/10/17 09:46:04;;;;;;;7.65;2.30;;;;;;;13.10;46.28;94927.25;4194863;28;20675;-71
2023/10/17 09:48:07;;;;;;;10.25;4.35;;;;;;;13.22;46.13;94930.34;4213163;28;20138;-73
2023/10/17 09:50:16;;;;;;;11.18;4.60;;;;;;;13.31;46.07;94928.53;4173439;28;20057;-73
2023/10/17 09:52:19;;;;;;;10.40;3.38;;;;;;;13.29;45.86;94927.88;4200081;28;20239;-72
2023/10/17 09:54:23;;;;;;;6.70;3.07;;;;;;;13.31;46.19;94924.09;4206645;28;20048;-73
2023/10/17 09:56:41;;;;;;;7.60;2.90;;;;;;;13.27;46.22;94914.88;4192579;28;20049;-73
2023/10/17 09:58:47;;;;;;;9.98;2.67;;;;;;;13.27;46.13;94914.88;4208451;28;20123;-73
2023/10/17 10:01:05;;;;;;;6.47;2.80;;;;;;;13.28;46.36;94924.44;4192497;28;20589;-74
2023/10/17 10:03:08;;;;;;;4.95;2.30;;;;;;;13.27;46.18;94928.03;4210103;28;20488;-70
2023/10/17 10:05:24;;;;;;;7.60;2.83;;;;;;;13.17;46.20;94921.31;4193411;28;20473;-73
2023/10/17 10:07:31;;;;;;;6.95;2.95;;;;;;;13.08;46.43;94912.66;4192918;28;20354;-72
2023/10/17 10:09:37;;;;;;;11.18;3.22;;;;;;;13.14;46.43;94913.75;4211270;28;20055;-71
2023/10/17 10:11:48;;;;;;;6.05;3.60;;;;;;;13.25;46.28;94919.50;4206038;28;20094;-74
2023/10/17 10:14:04;;;;;;;9.20;3.40;;;;;;;13.26;46.08;94909.78;4186236;28;20049;-74
2023/10/17 10:16:08;;;;;;;8.30;2.50;;;;;;;13.35;45.61;94915.84;4211215;28;20058;-71
2023/10/17 10:18:12;;;;;;;10.87;2.60;;;;;;;13.41;45.33;94918.63;4213382;28;20048;-72
2023/10/17 10:20:15;;;;;;;8.88;2.83;;;;;;;13.42;45.69;94911.53;4205594;28;20084;-72
2023/10/17 10:22:17;;;;;;;7.25;2.60;;;;;;;13.44;45.79;94906.94;4184411;28;20070;-74
2023/10/17 10:24:26;;;;;;;6.80;2.90;;;;;;;13.47;45.29;94902.16;4211914;28;20064;-73
2023/10/17 10:26:28;;;;;;;13.07;3.28;;;;;;;13.51;45.54;94903.44;4186578;28;20528;-74
2023/10/17 10:28:31;;;;;;;16.20;3.95;;;;;;;13.57;45.11;94906.38;4211610;28;20114;-74
2023/10/17 10:30:43;;;;;;;9.20;3.08;;;;;;;13.52;45.08;94901.63;4184654;28;20158;-75
2023/10/17 10:32:50;;;;;;;12.20;2.78;;;;;;;13.48;45.26;94906.41;4203630;28;20157;-74
2023/10/17 10:34:53;;;;;;;12.30;2.70;;;;;;;13.55;45.36;94898.69;4199719;28;20487;-73
2023/10/17 10:36:57;;;;;;;8.02;2.90;;;;;;;13.62;45.39;94901.44;4183407;28;20185;-71
2023/10/17 10:39:13;;;;;;;8.20;3.20;;;;;;;13.45;45.54;94898.88;4194160;28;20617;-74
2023/10/17 10:41:18;;;;;;;7.45;3.35;;;;;;;13.42;45.43;94896.59;4188430;28;20053;-74
2023/10/17 10:43:21;;;;;;;8.00;3.13;;;;;;;13.35;45.51;94902.69;4203328;28;20067;-73
2023/10/17 10:45:52;;;;;;;6.55;2.92;;;;;;;13.13;45.84;94893.72;4206950;28;20450;-71
2023/10/17 10:48:01;;;;;;;14.80;3.13;;;;;;;12.93;46.47;94894.13;4203422;28;20048;-72
2023/10/17 10:50:05;;;;;;;5.20;2.85;;;;;;;13.05;46.96;94903.25;4205675;28;20149;-73
2023/10/17 10:52:08;;;;;;;10.10;3.70;;;;;;;13.20;46.21;94900.75;4194624;28;20492;-73
2023/10/17 10:54:10;;;;;;;9.95;2.92;;;;;;;13.39;46.15;94893.47;4212441;28;20581;-71
2023/10/17 10:56:15;;;;;;;6.25;2.70;;;;;;;13.53;45.75;94895.41;4201290;28;20043;-71
2023/10/17 10:58:18;;;;;;;6.70;3.47;;;;;;;13.66;45.08;94890.38;4211161;28;20062;-71
2023/10/17 11:00:21;;;;;;;7.28;3.25;;;;;;;13.77;45.09;94885.72;4205222;28;20044;-74
2023/10/17 11:02:24;;;;;;;11.63;5.97;;;;;;;13.85;44.98;94891.75;4212071;28;20446;-74
2023/10/17 11:04:29;;;;;;;18.08;5.53;;;;;;;13.93;44.93;94881.16;4200666;28;20053;-74
2023/10/17 11:06:35;;;;;;;10.30;4.88;;;;;;;14.02;44.47;94875.81;4192415;28;20142;-74
2023/10/17 11:08:41;;;;;;;9.32;4.38;;;;;;;13.93;44.33;94878.50;4212471;28;20508;-74
2023/10/17 11:10:47;;;;;;;9.98;3.63;;;;;;;13.89;44.55;94874.59;4212236;28;20056;-72
2023/10/17 11:12:53;;;;;;;8.65;3.97;;;;;;;13.78;44.68;94868.91;4209133;28;20066;-76
2023/10/17 11:15:14;;;;;;;10.38;3.97;;;;;;;13.87;44.75;94870.50;4206186;28;20055;-73
2023/10/17 11:17:17;;;;;;;5.70;3.25;;;;;;;13.98;44.90;94862.22;4206795;28;20051;-72
2023/10/17 11:19:19;;;;;;;8.40;3.43;;;;;;;14.02;44.80;94857.38;4209197;28;20119;-72
2023/10/17 11:21:23;;;;;;;7.88;3.33;;;;;;;14.12;44.55;94850.06;4212360;28;20334;-72
2023/10/17 11:23:27;;;;;;;12.32;4.65;;;;;;;14.16;43.96;94848.72;4193563;28;20095;-73
2023/10/17 11:25:31;;;;;;;4.40;3.75;;;;;;;14.21;43.88;94846.38;4208612;28;20052;-72
2023/10/17 11:27:34;;;;;;;4.50;2.95;;;;;;;14.28;43.86;94844.69;4193163;28;20048;-74
2023/10/17 11:29:36;;;;;;;5.65;3.17;;;;;;;14.27;43.62;94835.13;4184592;28;20505;-73
2023/10/17 11:31:41;;;;;;;7.97;3.65;;;;;;;14.27;43.93;94835.13;4203388;28;20105;-73
2023/10/17 11:33:47;;;;;;;9.55;4.55;;;;;;;14.19;44.11;94829.91;4203265;28;20056;-74
2023/10/17 11:35:51;;;;;;;10.85;3.85;;;;;;;14.17;43.86;94826.63;4203344;28;20048;-73
2023/10/17 11:37:53;;;;;;;6.43;3.50;;;;;;;14.18;44.40;94820.38;4206529;28;20134;-73
2023/10/17 11:40:25;;;;;;;9.52;3.30;;;;;;;14.22;44.31;94826.94;4211848;28;20082;-74
2023/10/17 11:42:33;;;;;;;9.25;3.50;;;;;;;14.15;44.60;94818.09;4209694;28;20145;-74
2023/10/17 11:44:42;;;;;;;11.07;4.50;;;;;;;14.15;45.05;94823.34;4207934;28;20577;-73
2023/10/17 11:47:02;;;;;;;6.00;3.10;;;;;;;14.10;44.91;94817.81;4198460;28;20110;-74
2023/10/17 11:49:26;;;;;;;14.30;3.45;;;;;;;13.97;45.34;94810.50;4191185;28;20102;-74